sensor_id;sensor_type;location;lat;lon;timestamp;temperature;humidity
45066;DHT22;30830;53.704;10.004;2023-04-25T00:01:38;7.30;99.90
45066;DHT22;30830;53.704;10.004;2023-04-25T00:04:04;7.30;99.90
45066;DHT22;30830;53.704;10.004;2023-04-25T00:06:32;7.20;99.90
45066;DHT22;30830;53.704;10.004;2023-04-25T00:08:57;7.20;99.90
45066;DHT22;30830;53.704;10.004;2023-04-25T00:11:24;7.20;99.90
45066;DHT22;30830;53.704;10.004;2023-04-25T00:13:49;7.10;99.90
45066;DHT22;30830;53.704;10.004;2023-04-25T00:16:18;7.10;99.90
45066;DHT22;30830;53.704;10.004;2023-04-25T00:18:43;7.10;99.90
45066;DHT22;30830;53.704;10.004;2023-04-25T00:21:20;7.10;99.90
45066;DHT22;30830;53.704;10.004;2023-04-25T00:23:48;7.10;99.90
45066;DHT22;30830;53.704;10.004;2023-04-25T00:26:14;7.10;99.90
45066;DHT22;30830;53.704;10.004;2023-04-25T00:28:40;7.10;99.90
45066;DHT22;30830;53.704;10.004;2023-04-25T00:31:06;7.10;99.90
45066;DHT22;30830;53.704;10.004;2023-04-25T00:33:31;7.10;99.90
45066;DHT22;30830;53.704;10.004;2023-04-25T00:35:57;7.00;99.90
45066;DHT22;30830;53.704;10.004;2023-04-25T00:38:22;7.00;99.90
45066;DHT22;30830;53.704;10.004;2023-04-25T00:40:48;7.00;99.90
45066;DHT22;30830;53.704;10.004;2023-04-25T00:43:14;7.00;99.90
45066;DHT22;30830;53.704;10.004;2023-04-25T00:45:40;6.90;99.90
45066;DHT22;30830;53.704;10.004;2023-04-25T00:48:05;6.90;99.90
45066;DHT22;30830;53.704;10.004;2023-04-25T00:50:33;6.90;99.90
45066;DHT22;30830;53.704;10.004;2023-04-25T00:52:59;6.90;99.90
45066;DHT22;30830;53.704;10.004;2023-04-25T00:55:25;6.90;99.90
45066;DHT22;30830;53.704;10.004;2023-04-25T00:57:51;6.90;99.90
45066;DHT22;30830;53.704;10.004;2023-04-25T01:00:17;6.90;99.90
45066;DHT22;30830;53.704;10.004;2023-04-25T01:02:43;6.90;99.90
45066;DHT22;30830;53.704;10.004;2023-04-25T01:05:10;6.90;99.90
45066;DHT22;30830;53.704;10.004;2023-04-25T01:07:36;6.90;99.90
45066;DHT22;30830;53.704;10.004;2023-04-25T01:10:02;6.90;99.90
45066;DHT22;30830;53.704;10.004;2023-04-25T01:12:28;6.90;99.90
45066;DHT22;30830;53.704;10.004;2023-04-25T01:14:54;6.90;99.90
45066;DHT22;30830;53.704;10.004;2023-04-25T01:17:20;6.80;99.90
45066;DHT22;30830;53.704;10.004;2023-04-25T01:19:46;6.80;99.90
45066;DHT22;30830;53.704;10.004;2023-04-25T01:22:14;6.80;99.90
45066;DHT22;30830;53.704;10.004;2023-04-25T01:24:40;6.80;99.90
45066;DHT22;30830;53.704;10.004;2023-04-25T01:27:06;6.80;99.90
45066;DHT22;30830;53.704;10.004;2023-04-25T01:29:32;6.70;99.90
45066;DHT22;30830;53.704;10.004;2023-04-25T01:31:59;6.60;99.90
45066;DHT22;30830;53.704;10.004;2023-04-25T01:34:25;6.60;99.90
45066;DHT22;30830;53.704;10.004;2023-04-25T01:36:51;6.50;99.90
45066;DHT22;30830;53.704;10.004;2023-04-25T01:39:17;6.50;99.90
45066;DHT22;30830;53.704;10.004;2023-04-25T01:41:43;6.40;99.90
45066;DHT22;30830;53.704;10.004;2023-04-25T01:44:09;6.50;99.90
45066;DHT22;30830;53.704;10.004;2023-04-25T01:46:34;6.50;99.90
45066;DHT22;30830;53.704;10.004;2023-04-25T01:49:00;6.40;99.90
45066;DHT22;30830;53.704;10.004;2023-04-25T01:51:26;6.30;99.90
45066;DHT22;30830;53.704;10.004;2023-04-25T01:53:52;6.30;99.90
45066;DHT22;30830;53.704;10.004;2023-04-25T01:56:18;6.30;99.90
45066;DHT22;30830;53.704;10.004;2023-04-25T01:58:43;6.20;99.90
45066;DHT22;30830;53.704;10.004;2023-04-25T02:01:10;6.20;99.90
45066;DHT22;30830;53.704;10.004;2023-04-25T02:03:36;6.20;99.90
45066;DHT22;30830;53.704;10.004;2023-04-25T02:06:01;6.20;99.90
45066;DHT22;30830;53.704;10.004;2023-04-25T02:08:27;6.20;99.90
45066;DHT22;30830;53.704;10.004;2023-04-25T02:10:52;6.10;99.90
45066;DHT22;30830;53.704;10.004;2023-04-25T02:13:18;6.10;99.90
45066;DHT22;30830;53.704;10.004;2023-04-25T02:15:44;6.10;99.90
45066;DHT22;30830;53.704;10.004;2023-04-25T02:18:09;6.10;99.90
45066;DHT22;30830;53.704;10.004;2023-04-25T02:20:36;6.10;99.90
45066;DHT22;30830;53.704;10.004;2023-04-25T02:23:02;6.10;99.90
45066;DHT22;30830;53.704;10.004;2023-04-25T02:25:28;6.00;99.90
45066;DHT22;30830;53.704;10.004;2023-04-25T02:27:54;6.00;99.90
45066;DHT22;30830;53.704;10.004;2023-04-25T02:30:20;6.00;99.90
45066;DHT22;30830;53.704;10.004;2023-04-25T02:32:45;6.00;99.90
45066;DHT22;30830;53.704;10.004;2023-04-25T02:35:11;6.00;99.90
45066;DHT22;30830;53.704;10.004;2023-04-25T02:37:38;6.00;99.90
45066;DHT22;30830;53.704;10.004;2023-04-25T02:40:04;6.00;99.90
45066;DHT22;30830;53.704;10.004;2023-04-25T02:42:30;6.00;99.90
45066;DHT22;30830;53.704;10.004;2023-04-25T02:44:56;5.90;99.90
45066;DHT22;30830;53.704;10.004;2023-04-25T02:47:21;5.90;99.90
45066;DHT22;30830;53.704;10.004;2023-04-25T02:49:47;5.90;99.90
45066;DHT22;30830;53.704;10.004;2023-04-25T02:52:12;5.90;99.90
45066;DHT22;30830;53.704;10.004;2023-04-25T02:54:39;5.90;99.90
45066;DHT22;30830;53.704;10.004;2023-04-25T02:57:05;5.90;99.90
45066;DHT22;30830;53.704;10.004;2023-04-25T02:59:31;5.90;99.90
45066;DHT22;30830;53.704;10.004;2023-04-25T03:01:56;5.90;99.90
45066;DHT22;30830;53.704;10.004;2023-04-25T03:04:22;5.80;99.90
45066;DHT22;30830;53.704;10.004;2023-04-25T03:06:49;5.80;99.90
45066;DHT22;30830;53.704;10.004;2023-04-25T03:09:15;5.80;99.90
45066;DHT22;30830;53.704;10.004;2023-04-25T03:11:41;5.80;99.90
45066;DHT22;30830;53.704;10.004;2023-04-25T03:14:07;5.70;99.90
45066;DHT22;30830;53.704;10.004;2023-04-25T03:16:32;5.70;99.90
45066;DHT22;30830;53.704;10.004;2023-04-25T03:18:59;5.60;99.90
45066;DHT22;30830;53.704;10.004;2023-04-25T03:21:24;5.50;99.90
45066;DHT22;30830;53.704;10.004;2023-04-25T03:23:50;5.50;99.90
45066;DHT22;30830;53.704;10.004;2023-04-25T03:26:15;5.40;99.90
45066;DHT22;30830;53.704;10.004;2023-04-25T03:28:41;5.40;99.90
45066;DHT22;30830;53.704;10.004;2023-04-25T03:31:07;5.30;99.90
45066;DHT22;30830;53.704;10.004;2023-04-25T03:33:32;5.20;99.90
45066;DHT22;30830;53.704;10.004;2023-04-25T03:35:58;5.20;99.90
45066;DHT22;30830;53.704;10.004;2023-04-25T03:38:24;5.20;99.90
45066;DHT22;30830;53.704;10.004;2023-04-25T03:40:50;5.20;99.90
45066;DHT22;30830;53.704;10.004;2023-04-25T03:43:16;5.10;99.90
45066;DHT22;30830;53.704;10.004;2023-04-25T03:45:41;5.10;99.90
45066;DHT22;30830;53.704;10.004;2023-04-25T03:48:07;5.00;99.90
45066;DHT22;30830;53.704;10.004;2023-04-25T03:50:33;5.00;99.90
45066;DHT22;30830;53.704;10.004;2023-04-25T03:52:58;4.90;99.90
45066;DHT22;30830;53.704;10.004;2023-04-25T03:55:24;4.90;99.90
45066;DHT22;30830;53.704;10.004;2023-04-25T03:57:50;4.80;99.90
45066;DHT22;30830;53.704;10.004;2023-04-25T04:00:15;4.80;99.90
45066;DHT22;30830;53.704;10.004;2023-04-25T04:02:41;4.80;99.90
45066;DHT22;30830;53.704;10.004;2023-04-25T04:05:06;4.80;99.90
45066;DHT22;30830;53.704;10.004;2023-04-25T04:07:32;4.70;99.90
45066;DHT22;30830;53.704;10.004;2023-04-25T04:09:59;4.70;99.90
45066;DHT22;30830;53.704;10.004;2023-04-25T04:12:24;4.70;99.90
45066;DHT22;30830;53.704;10.004;2023-04-25T04:14:50;4.70;99.90
45066;DHT22;30830;53.704;10.004;2023-04-25T04:17:15;4.70;99.90
45066;DHT22;30830;53.704;10.004;2023-04-25T04:19:41;4.60;99.90
45066;DHT22;30830;53.704;10.004;2023-04-25T04:22:07;4.60;99.90
45066;DHT22;30830;53.704;10.004;2023-04-25T04:24:32;4.70;99.90
45066;DHT22;30830;53.704;10.004;2023-04-25T04:26:58;4.70;99.90
45066;DHT22;30830;53.704;10.004;2023-04-25T04:29:24;4.70;99.90
45066;DHT22;30830;53.704;10.004;2023-04-25T04:31:50;4.70;99.90
45066;DHT22;30830;53.704;10.004;2023-04-25T04:34:17;4.70;99.90
45066;DHT22;30830;53.704;10.004;2023-04-25T04:36:44;4.70;99.90
45066;DHT22;30830;53.704;10.004;2023-04-25T04:39:12;4.70;99.90
45066;DHT22;30830;53.704;10.004;2023-04-25T04:41:37;4.70;99.90
45066;DHT22;30830;53.704;10.004;2023-04-25T04:44:03;4.70;99.90
45066;DHT22;30830;53.704;10.004;2023-04-25T04:46:29;4.70;99.90
45066;DHT22;30830;53.704;10.004;2023-04-25T04:48:56;4.80;99.90
45066;DHT22;30830;53.704;10.004;2023-04-25T04:51:22;4.80;99.90
45066;DHT22;30830;53.704;10.004;2023-04-25T04:53:47;4.80;99.90
45066;DHT22;30830;53.704;10.004;2023-04-25T04:56:13;4.80;99.90
45066;DHT22;30830;53.704;10.004;2023-04-25T04:58:38;4.90;99.90
45066;DHT22;30830;53.704;10.004;2023-04-25T05:01:04;4.90;99.90
45066;DHT22;30830;53.704;10.004;2023-04-25T05:03:29;4.90;99.90
45066;DHT22;30830;53.704;10.004;2023-04-25T05:05:55;5.00;99.90
45066;DHT22;30830;53.704;10.004;2023-04-25T05:08:20;5.00;99.90
45066;DHT22;30830;53.704;10.004;2023-04-25T05:10:46;5.00;99.90
45066;DHT22;30830;53.704;10.004;2023-04-25T05:13:11;5.10;99.90
45066;DHT22;30830;53.704;10.004;2023-04-25T05:15:37;5.10;99.90
45066;DHT22;30830;53.704;10.004;2023-04-25T05:18:03;5.10;99.90
45066;DHT22;30830;53.704;10.004;2023-04-25T05:20:28;5.10;99.90
45066;DHT22;30830;53.704;10.004;2023-04-25T05:22:54;5.20;99.90
45066;DHT22;30830;53.704;10.004;2023-04-25T05:25:20;5.10;99.90
45066;DHT22;30830;53.704;10.004;2023-04-25T05:27:47;5.10;99.90
45066;DHT22;30830;53.704;10.004;2023-04-25T05:30:12;5.10;99.90
45066;DHT22;30830;53.704;10.004;2023-04-25T05:32:38;5.10;99.90
45066;DHT22;30830;53.704;10.004;2023-04-25T05:35:04;5.10;99.90
45066;DHT22;30830;53.704;10.004;2023-04-25T05:37:31;5.10;99.90
45066;DHT22;30830;53.704;10.004;2023-04-25T05:39:58;5.10;99.90
45066;DHT22;30830;53.704;10.004;2023-04-25T05:42:23;5.20;99.90
45066;DHT22;30830;53.704;10.004;2023-04-25T05:44:49;5.20;99.90
45066;DHT22;30830;53.704;10.004;2023-04-25T05:47:14;5.20;99.90
45066;DHT22;30830;53.704;10.004;2023-04-25T05:49:40;5.20;99.90
45066;DHT22;30830;53.704;10.004;2023-04-25T05:52:06;5.20;99.90
45066;DHT22;30830;53.704;10.004;2023-04-25T05:54:31;5.20;99.90
45066;DHT22;30830;53.704;10.004;2023-04-25T05:56:57;5.20;99.90
45066;DHT22;30830;53.704;10.004;2023-04-25T05:59:23;5.20;99.90
45066;DHT22;30830;53.704;10.004;2023-04-25T06:01:48;5.20;99.90
45066;DHT22;30830;53.704;10.004;2023-04-25T06:04:14;5.20;99.90
45066;DHT22;30830;53.704;10.004;2023-04-25T06:06:39;5.20;99.90
45066;DHT22;30830;53.704;10.004;2023-04-25T06:09:05;5.20;99.90
45066;DHT22;30830;53.704;10.004;2023-04-25T06:11:30;5.30;99.90
45066;DHT22;30830;53.704;10.004;2023-04-25T06:13:56;5.30;99.90
45066;DHT22;30830;53.704;10.004;2023-04-25T06:16:21;5.30;99.90
45066;DHT22;30830;53.704;10.004;2023-04-25T06:18:47;5.40;99.90
45066;DHT22;30830;53.704;10.004;2023-04-25T06:21:13;5.40;99.90
45066;DHT22;30830;53.704;10.004;2023-04-25T06:23:38;5.50;99.90
45066;DHT22;30830;53.704;10.004;2023-04-25T06:26:04;5.60;99.90
45066;DHT22;30830;53.704;10.004;2023-04-25T06:28:29;5.60;99.90
45066;DHT22;30830;53.704;10.004;2023-04-25T06:30:55;5.70;99.90
45066;DHT22;30830;53.704;10.004;2023-04-25T06:33:20;5.70;99.90
45066;DHT22;30830;53.704;10.004;2023-04-25T06:35:46;5.70;99.90
45066;DHT22;30830;53.704;10.004;2023-04-25T06:38:12;5.80;99.90
45066;DHT22;30830;53.704;10.004;2023-04-25T06:40:38;5.80;99.90
45066;DHT22;30830;53.704;10.004;2023-04-25T06:43:03;5.80;99.90
45066;DHT22;30830;53.704;10.004;2023-04-25T06:45:29;5.80;99.90
45066;DHT22;30830;53.704;10.004;2023-04-25T06:47:55;5.80;99.90
45066;DHT22;30830;53.704;10.004;2023-04-25T06:50:21;5.80;99.90
45066;DHT22;30830;53.704;10.004;2023-04-25T06:52:46;5.70;99.90
45066;DHT22;30830;53.704;10.004;2023-04-25T06:55:12;5.80;99.90
45066;DHT22;30830;53.704;10.004;2023-04-25T06:57:37;5.80;99.90
45066;DHT22;30830;53.704;10.004;2023-04-25T07:00:04;5.80;99.90
45066;DHT22;30830;53.704;10.004;2023-04-25T07:02:33;5.80;99.90
45066;DHT22;30830;53.704;10.004;2023-04-25T07:04:59;5.90;99.90
45066;DHT22;30830;53.704;10.004;2023-04-25T07:07:26;6.00;99.90
45066;DHT22;30830;53.704;10.004;2023-04-25T07:09:52;6.10;99.90
45066;DHT22;30830;53.704;10.004;2023-04-25T07:12:17;6.00;99.90
45066;DHT22;30830;53.704;10.004;2023-04-25T07:14:43;5.90;99.90
45066;DHT22;30830;53.704;10.004;2023-04-25T07:17:08;5.90;99.90
45066;DHT22;30830;53.704;10.004;2023-04-25T07:19:34;5.90;99.90
45066;DHT22;30830;53.704;10.004;2023-04-25T07:22:00;6.00;99.90
45066;DHT22;30830;53.704;10.004;2023-04-25T07:24:25;6.00;99.90
45066;DHT22;30830;53.704;10.004;2023-04-25T07:26:51;6.10;99.90
45066;DHT22;30830;53.704;10.004;2023-04-25T07:29:17;6.20;99.90
45066;DHT22;30830;53.704;10.004;2023-04-25T07:31:42;6.20;99.90
45066;DHT22;30830;53.704;10.004;2023-04-25T07:34:08;6.30;99.90
45066;DHT22;30830;53.704;10.004;2023-04-25T07:36:33;6.40;99.90
45066;DHT22;30830;53.704;10.004;2023-04-25T07:38:59;6.60;99.90
45066;DHT22;30830;53.704;10.004;2023-04-25T07:41:24;6.70;99.90
45066;DHT22;30830;53.704;10.004;2023-04-25T07:43:50;6.90;99.90
45066;DHT22;30830;53.704;10.004;2023-04-25T07:46:15;6.90;99.90
45066;DHT22;30830;53.704;10.004;2023-04-25T07:48:41;7.00;99.90
45066;DHT22;30830;53.704;10.004;2023-04-25T07:51:06;7.10;99.90
45066;DHT22;30830;53.704;10.004;2023-04-25T07:53:32;7.40;99.90
45066;DHT22;30830;53.704;10.004;2023-04-25T07:56:00;7.60;99.90
45066;DHT22;30830;53.704;10.004;2023-04-25T07:58:25;7.80;99.90
45066;DHT22;30830;53.704;10.004;2023-04-25T08:00:51;7.70;99.90
45066;DHT22;30830;53.704;10.004;2023-04-25T08:03:16;7.80;99.90
45066;DHT22;30830;53.704;10.004;2023-04-25T08:05:42;7.60;99.90
45066;DHT22;30830;53.704;10.004;2023-04-25T08:08:08;7.50;99.90
45066;DHT22;30830;53.704;10.004;2023-04-25T08:10:34;7.50;99.90
45066;DHT22;30830;53.704;10.004;2023-04-25T08:12:59;7.30;99.90
45066;DHT22;30830;53.704;10.004;2023-04-25T08:15:25;6.90;99.90
45066;DHT22;30830;53.704;10.004;2023-04-25T08:17:51;6.70;99.90
45066;DHT22;30830;53.704;10.004;2023-04-25T08:20:20;6.60;99.90
45066;DHT22;30830;53.704;10.004;2023-04-25T08:22:45;6.60;99.90
45066;DHT22;30830;53.704;10.004;2023-04-25T08:25:11;6.70;99.90
45066;DHT22;30830;53.704;10.004;2023-04-25T08:27:36;6.90;99.90
45066;DHT22;30830;53.704;10.004;2023-04-25T08:30:03;7.40;99.90
45066;DHT22;30830;53.704;10.004;2023-04-25T08:32:29;7.60;99.90
45066;DHT22;30830;53.704;10.004;2023-04-25T08:34:54;7.70;99.90
45066;DHT22;30830;53.704;10.004;2023-04-25T08:37:21;7.80;99.90
45066;DHT22;30830;53.704;10.004;2023-04-25T08:39:46;7.90;99.90
45066;DHT22;30830;53.704;10.004;2023-04-25T08:42:15;8.10;99.90
45066;DHT22;30830;53.704;10.004;2023-04-25T08:44:40;8.50;99.90
45066;DHT22;30830;53.704;10.004;2023-04-25T08:47:06;8.80;99.90
45066;DHT22;30830;53.704;10.004;2023-04-25T08:49:32;9.10;99.90
45066;DHT22;30830;53.704;10.004;2023-04-25T08:52:03;9.50;99.90
45066;DHT22;30830;53.704;10.004;2023-04-25T08:54:31;9.80;99.90
45066;DHT22;30830;53.704;10.004;2023-04-25T08:57:00;9.60;99.90
45066;DHT22;30830;53.704;10.004;2023-04-25T08:59:27;9.30;99.90
45066;DHT22;30830;53.704;10.004;2023-04-25T09:01:54;9.00;99.90
45066;DHT22;30830;53.704;10.004;2023-04-25T09:04:20;9.00;99.90
45066;DHT22;30830;53.704;10.004;2023-04-25T09:06:47;8.90;99.90
45066;DHT22;30830;53.704;10.004;2023-04-25T09:09:12;8.90;99.90
45066;DHT22;30830;53.704;10.004;2023-04-25T09:11:38;8.80;99.90
45066;DHT22;30830;53.704;10.004;2023-04-25T09:19:25;8.70;99.90
45066;DHT22;30830;53.704;10.004;2023-04-25T09:21:54;8.70;99.90
45066;DHT22;30830;53.704;10.004;2023-04-25T09:24:32;8.60;99.90
45066;DHT22;30830;53.704;10.004;2023-04-25T09:26:58;8.50;99.90
45066;DHT22;30830;53.704;10.004;2023-04-25T09:29:34;8.50;99.90
45066;DHT22;30830;53.704;10.004;2023-04-25T09:32:18;8.70;99.90
45066;DHT22;30830;53.704;10.004;2023-04-25T09:34:49;9.00;99.90
45066;DHT22;30830;53.704;10.004;2023-04-25T09:37:26;9.20;99.90
45066;DHT22;30830;53.704;10.004;2023-04-25T09:39:54;9.10;99.90
45066;DHT22;30830;53.704;10.004;2023-04-25T09:42:24;8.90;99.90
45066;DHT22;30830;53.704;10.004;2023-04-25T09:44:53;8.90;99.90
45066;DHT22;30830;53.704;10.004;2023-04-25T09:47:18;8.90;99.90
45066;DHT22;30830;53.704;10.004;2023-04-25T09:49:47;8.90;99.90
45066;DHT22;30830;53.704;10.004;2023-04-25T09:52:17;8.80;99.90
45066;DHT22;30830;53.704;10.004;2023-04-25T09:54:44;8.80;99.90
45066;DHT22;30830;53.704;10.004;2023-04-25T09:57:18;8.80;99.90
45066;DHT22;30830;53.704;10.004;2023-04-25T09:59:48;8.90;99.90
45066;DHT22;30830;53.704;10.004;2023-04-25T10:02:16;9.20;99.90
45066;DHT22;30830;53.704;10.004;2023-04-25T10:04:45;9.50;99.90
45066;DHT22;30830;53.704;10.004;2023-04-25T10:07:12;9.90;99.90
45066;DHT22;30830;53.704;10.004;2023-04-25T10:09:39;9.90;99.90
45066;DHT22;30830;53.704;10.004;2023-04-25T10:12:06;9.90;99.90
45066;DHT22;30830;53.704;10.004;2023-04-25T10:14:33;9.80;99.90
45066;DHT22;30830;53.704;10.004;2023-04-25T10:17:00;9.50;99.90
45066;DHT22;30830;53.704;10.004;2023-04-25T10:19:27;9.30;99.90
45066;DHT22;30830;53.704;10.004;2023-04-25T10:22:10;9.20;99.90
45066;DHT22;30830;53.704;10.004;2023-04-25T10:24:38;9.50;99.90
45066;DHT22;30830;53.704;10.004;2023-04-25T10:27:05;9.80;99.90
45066;DHT22;30830;53.704;10.004;2023-04-25T10:29:31;9.90;99.90
45066;DHT22;30830;53.704;10.004;2023-04-25T10:31:57;9.90;99.90
45066;DHT22;30830;53.704;10.004;2023-04-25T10:34:43;9.80;99.90
45066;DHT22;30830;53.704;10.004;2023-04-25T10:37:12;9.90;99.90
45066;DHT22;30830;53.704;10.004;2023-04-25T10:39:40;9.90;99.90
45066;DHT22;30830;53.704;10.004;2023-04-25T10:42:09;10.00;99.90
45066;DHT22;30830;53.704;10.004;2023-04-25T10:44:37;9.80;99.90
45066;DHT22;30830;53.704;10.004;2023-04-25T10:47:03;9.60;99.90
45066;DHT22;30830;53.704;10.004;2023-04-25T10:49:41;8.90;99.90
45066;DHT22;30830;53.704;10.004;2023-04-25T10:52:26;8.50;99.90
45066;DHT22;30830;53.704;10.004;2023-04-25T10:54:54;8.40;99.90
45066;DHT22;30830;53.704;10.004;2023-04-25T10:57:27;8.40;99.90
45066;DHT22;30830;53.704;10.004;2023-04-25T10:59:58;8.50;99.90
45066;DHT22;30830;53.704;10.004;2023-04-25T11:02:26;8.80;99.90
45066;DHT22;30830;53.704;10.004;2023-04-25T11:04:53;8.90;99.90
45066;DHT22;30830;53.704;10.004;2023-04-25T11:07:49;8.90;99.90
45066;DHT22;30830;53.704;10.004;2023-04-25T11:10:16;8.90;99.90
45066;DHT22;30830;53.704;10.004;2023-04-25T11:12:41;9.00;99.90
45066;DHT22;30830;53.704;10.004;2023-04-25T11:15:08;9.10;99.90
45066;DHT22;30830;53.704;10.004;2023-04-25T11:17:33;9.10;99.90
45066;DHT22;30830;53.704;10.004;2023-04-25T11:19:59;9.10;99.90
45066;DHT22;30830;53.704;10.004;2023-04-25T11:22:26;9.00;99.90
45066;DHT22;30830;53.704;10.004;2023-04-25T11:24:52;9.00;99.90
45066;DHT22;30830;53.704;10.004;2023-04-25T11:27:18;9.00;99.90
45066;DHT22;30830;53.704;10.004;2023-04-25T11:29:43;9.20;99.90
45066;DHT22;30830;53.704;10.004;2023-04-25T11:32:09;9.60;99.90
45066;DHT22;30830;53.704;10.004;2023-04-25T11:34:35;9.90;99.90
45066;DHT22;30830;53.704;10.004;2023-04-25T11:37:02;10.10;99.90
45066;DHT22;30830;53.704;10.004;2023-04-25T11:39:28;10.20;99.90
45066;DHT22;30830;53.704;10.004;2023-04-25T11:41:54;10.20;99.90
45066;DHT22;30830;53.704;10.004;2023-04-25T11:44:21;10.00;99.90
45066;DHT22;30830;53.704;10.004;2023-04-25T11:46:48;9.60;99.90
45066;DHT22;30830;53.704;10.004;2023-04-25T11:49:14;9.50;99.90
45066;DHT22;30830;53.704;10.004;2023-04-25T11:51:47;9.50;99.90
45066;DHT22;30830;53.704;10.004;2023-04-25T11:54:13;9.50;99.90
45066;DHT22;30830;53.704;10.004;2023-04-25T11:56:43;9.80;99.90
45066;DHT22;30830;53.704;10.004;2023-04-25T11:59:08;10.10;99.90
45066;DHT22;30830;53.704;10.004;2023-04-25T12:01:36;10.30;99.50
45066;DHT22;30830;53.704;10.004;2023-04-25T12:04:16;10.40;99.90
45066;DHT22;30830;53.704;10.004;2023-04-25T12:06:43;10.30;99.50
45066;DHT22;30830;53.704;10.004;2023-04-25T12:09:11;10.10;99.90
45066;DHT22;30830;53.704;10.004;2023-04-25T12:11:46;10.00;99.90
45066;DHT22;30830;53.704;10.004;2023-04-25T12:14:12;9.70;99.90
45066;DHT22;30830;53.704;10.004;2023-04-25T12:16:46;9.70;99.90
45066;DHT22;30830;53.704;10.004;2023-04-25T12:19:16;9.80;99.90
45066;DHT22;30830;53.704;10.004;2023-04-25T12:21:42;9.80;99.90
45066;DHT22;30830;53.704;10.004;2023-04-25T12:26:50;9.60;99.90
45066;DHT22;30830;53.704;10.004;2023-04-25T12:31:47;9.80;99.90
45066;DHT22;30830;53.704;10.004;2023-04-25T12:34:12;9.60;99.90
45066;DHT22;30830;53.704;10.004;2023-04-25T12:36:38;9.50;99.90
45066;DHT22;30830;53.704;10.004;2023-04-25T12:39:04;9.30;99.90
45066;DHT22;30830;53.704;10.004;2023-04-25T12:41:30;9.00;99.90
45066;DHT22;30830;53.704;10.004;2023-04-25T12:43:56;8.80;99.90
45066;DHT22;30830;53.704;10.004;2023-04-25T12:46:21;8.50;99.90
45066;DHT22;30830;53.704;10.004;2023-04-25T12:48:48;8.20;99.90
45066;DHT22;30830;53.704;10.004;2023-04-25T12:51:14;8.10;99.90
45066;DHT22;30830;53.704;10.004;2023-04-25T12:53:40;8.20;99.90
45066;DHT22;30830;53.704;10.004;2023-04-25T12:56:07;8.10;99.90
45066;DHT22;30830;53.704;10.004;2023-04-25T12:58:33;8.20;99.90
45066;DHT22;30830;53.704;10.004;2023-04-25T13:00:59;8.20;99.90
45066;DHT22;30830;53.704;10.004;2023-04-25T13:03:24;8.20;99.90
45066;DHT22;30830;53.704;10.004;2023-04-25T13:05:51;8.30;99.90
45066;DHT22;30830;53.704;10.004;2023-04-25T13:08:18;8.60;99.90
45066;DHT22;30830;53.704;10.004;2023-04-25T13:10:43;8.90;99.90
45066;DHT22;30830;53.704;10.004;2023-04-25T13:13:09;9.00;99.90
45066;DHT22;30830;53.704;10.004;2023-04-25T13:15:34;9.10;99.90
45066;DHT22;30830;53.704;10.004;2023-04-25T13:18:00;9.10;99.90
45066;DHT22;30830;53.704;10.004;2023-04-25T13:20:26;9.10;99.90
45066;DHT22;30830;53.704;10.004;2023-04-25T13:22:51;9.00;99.90
45066;DHT22;30830;53.704;10.004;2023-04-25T13:25:17;8.90;99.90
45066;DHT22;30830;53.704;10.004;2023-04-25T13:27:42;8.90;99.90
45066;DHT22;30830;53.704;10.004;2023-04-25T13:30:09;8.90;99.90
45066;DHT22;30830;53.704;10.004;2023-04-25T13:32:36;9.00;99.90
45066;DHT22;30830;53.704;10.004;2023-04-25T13:35:03;9.20;99.90
45066;DHT22;30830;53.704;10.004;2023-04-25T13:37:29;9.40;99.90
45066;DHT22;30830;53.704;10.004;2023-04-25T13:39:58;9.50;99.90
45066;DHT22;30830;53.704;10.004;2023-04-25T13:42:24;9.50;99.90
45066;DHT22;30830;53.704;10.004;2023-04-25T13:44:50;9.20;99.90
45066;DHT22;30830;53.704;10.004;2023-04-25T13:47:15;8.60;99.90
45066;DHT22;30830;53.704;10.004;2023-04-25T13:49:41;8.30;99.90
45066;DHT22;30830;53.704;10.004;2023-04-25T13:52:06;8.20;99.90
45066;DHT22;30830;53.704;10.004;2023-04-25T13:54:33;8.30;99.90
45066;DHT22;30830;53.704;10.004;2023-04-25T13:56:58;8.40;99.90
45066;DHT22;30830;53.704;10.004;2023-04-25T13:59:25;8.40;99.90
45066;DHT22;30830;53.704;10.004;2023-04-25T14:01:53;8.50;99.90
45066;DHT22;30830;53.704;10.004;2023-04-25T14:04:19;8.60;99.90
45066;DHT22;30830;53.704;10.004;2023-04-25T14:06:44;8.70;99.90
45066;DHT22;30830;53.704;10.004;2023-04-25T14:09:10;8.90;99.90
45066;DHT22;30830;53.704;10.004;2023-04-25T14:11:37;9.00;99.90
45066;DHT22;30830;53.704;10.004;2023-04-25T14:14:03;9.00;99.90
45066;DHT22;30830;53.704;10.004;2023-04-25T14:16:29;9.10;99.90
45066;DHT22;30830;53.704;10.004;2023-04-25T14:18:55;9.20;99.90
45066;DHT22;30830;53.704;10.004;2023-04-25T14:21:21;9.30;99.90
45066;DHT22;30830;53.704;10.004;2023-04-25T14:23:47;9.30;99.90
45066;DHT22;30830;53.704;10.004;2023-04-25T14:26:12;9.40;99.90
45066;DHT22;30830;53.704;10.004;2023-04-25T14:28:38;9.40;99.90
45066;DHT22;30830;53.704;10.004;2023-04-25T14:31:04;9.30;99.90
45066;DHT22;30830;53.704;10.004;2023-04-25T14:33:30;9.40;99.90
45066;DHT22;30830;53.704;10.004;2023-04-25T14:35:56;9.50;99.90
45066;DHT22;30830;53.704;10.004;2023-04-25T14:38:21;9.50;99.90
45066;DHT22;30830;53.704;10.004;2023-04-25T14:40:49;9.20;99.90
45066;DHT22;30830;53.704;10.004;2023-04-25T14:43:14;9.20;99.90
45066;DHT22;30830;53.704;10.004;2023-04-25T14:45:40;9.10;99.90
45066;DHT22;30830;53.704;10.004;2023-04-25T14:48:06;8.90;99.90
45066;DHT22;30830;53.704;10.004;2023-04-25T14:50:32;8.80;99.90
45066;DHT22;30830;53.704;10.004;2023-04-25T14:52:58;8.70;99.90
45066;DHT22;30830;53.704;10.004;2023-04-25T14:55:26;8.60;99.90
45066;DHT22;30830;53.704;10.004;2023-04-25T14:57:55;8.60;99.90
45066;DHT22;30830;53.704;10.004;2023-04-25T15:00:21;8.70;99.90
45066;DHT22;30830;53.704;10.004;2023-04-25T15:02:50;8.60;99.90
45066;DHT22;30830;53.704;10.004;2023-04-25T15:05:16;8.30;99.90
45066;DHT22;30830;53.704;10.004;2023-04-25T15:07:43;8.10;99.90
45066;DHT22;30830;53.704;10.004;2023-04-25T15:10:09;7.80;99.90
45066;DHT22;30830;53.704;10.004;2023-04-25T15:12:42;7.60;99.90
45066;DHT22;30830;53.704;10.004;2023-04-25T15:15:09;7.50;99.90
45066;DHT22;30830;53.704;10.004;2023-04-25T15:17:46;7.50;99.90
45066;DHT22;30830;53.704;10.004;2023-04-25T15:20:13;7.60;99.90
45066;DHT22;30830;53.704;10.004;2023-04-25T15:22:40;7.80;99.90
45066;DHT22;30830;53.704;10.004;2023-04-25T15:25:07;7.80;99.90
45066;DHT22;30830;53.704;10.004;2023-04-25T15:27:34;7.90;99.90
45066;DHT22;30830;53.704;10.004;2023-04-25T15:30:05;8.10;99.90
45066;DHT22;30830;53.704;10.004;2023-04-25T15:32:34;8.20;99.90
45066;DHT22;30830;53.704;10.004;2023-04-25T15:35:04;8.30;99.90
45066;DHT22;30830;53.704;10.004;2023-04-25T15:37:31;8.30;99.90